Time;durP1;ratioP1;P1;durP2;ratioP2;P2;SDS_P1;SDS_P2;PMS_P1;PMS_P2;Temp;Humidity;BMP_temperature;BMP_pressure;BME280_temperature;BME280_humidity;BME280_pressure;Samples;Min_cycle;Max_cycle;Signal;HPM_P1;HPM_P2
2022/11/18 00:01:18;;;;;;;4.45;1.80;;;;;;;7.52;100.00;99486.47;5076694;28;20032;-34
2022/11/18 00:03:44;;;;;;;4.72;1.88;;;;;;;7.54;100.00;99489.72;5075407;28;20045;-34
2022/11/18 00:06:15;;;;;;;5.57;1.92;;;;;;;7.52;100.00;99486.47;5075515;28;20043;-34
2022/11/18 00:08:41;;;;;;;5.05;1.67;;;;;;;7.57;100.00;99492.75;5075029;28;20468;-34
2022/11/18 00:11:08;;;;;;;4.20;1.70;;;;;;;7.59;100.00;99501.38;5075174;28;20389;-34
2022/11/18 00:16:18;;;;;;;4.75;1.70;;;;;;;7.48;100.00;99489.66;5075603;28;20031;-34
2022/11/18 00:18:43;;;;;;;3.93;1.60;;;;;;;7.51;100.00;99499.09;5073802;28;20029;-34
2022/11/18 00:21:10;;;;;;;4.90;2.00;;;;;;;7.48;100.00;99511.16;5074990;28;20025;-34
2022/11/18 00:23:36;;;;;;;5.28;1.58;;;;;;;7.47;100.00;99514.91;5075020;28;20461;-34
2022/11/18 00:26:12;;;;;;;4.95;1.80;;;;;;;7.43;100.00;99516.47;5074841;28;20042;-34
2022/11/18 00:28:38;;;;;;;4.55;1.77;;;;;;;7.40;100.00;99521.50;5075626;28;20368;-34
2022/11/18 00:31:08;;;;;;;4.18;1.60;;;;;;;7.23;100.00;99503.47;5075074;28;20029;-34
2022/11/18 00:33:35;;;;;;;3.03;1.48;;;;;;;7.26;100.00;99504.03;5075153;28;20091;-35
2022/11/18 00:36:01;;;;;;;4.00;1.90;;;;;;;7.34;100.00;99527.84;5074351;28;20039;-35
2022/11/18 00:38:28;;;;;;;;;;;;;;;7.39;100.00;99530.63;5075152;28;20094;-34
2022/11/18 00:41:13;;;;;;;5.78;1.80;;;;;;;7.32;100.00;99529.94;5074497;28;19914;-34
2022/11/18 00:43:39;;;;;;;3.63;1.58;;;;;;;7.33;100.00;99535.09;5074670;28;20071;-35
2022/11/18 00:46:06;;;;;;;4.10;1.80;;;;;;;7.33;100.00;99532.41;5074879;28;20052;-34
2022/11/18 00:48:32;;;;;;;3.17;1.48;;;;;;;7.20;100.00;99524.63;5074631;28;20544;-34
2022/11/18 00:51:09;;;;;;;4.40;1.50;;;;;;;7.34;100.00;99542.13;5074234;28;20099;-35
2022/11/18 00:53:34;;;;;;;4.35;1.65;;;;;;;7.34;100.00;99544.81;5074804;28;20101;-34
2022/11/18 00:56:00;;;;;;;4.27;1.77;;;;;;;7.28;100.00;99535.03;5074834;28;20441;-35
2022/11/18 00:58:25;;;;;;;4.75;1.92;;;;;;;7.41;100.00;99547.34;5075264;28;20024;-35
2022/11/18 01:00:51;;;;;;;3.77;1.40;;;;;;;7.35;100.00;99543.75;5074554;28;20370;-35
2022/11/18 01:03:18;;;;;;;;;;;;;;;7.47;100.00;99552.59;5034691;28;1102189;-35
2022/11/18 01:05:43;;;;;;;5.45;1.90;;;;;;;7.47;100.00;99563.34;5075488;28;19939;-35
2022/11/18 01:08:11;;;;;;;5.50;1.85;;;;;;;7.46;100.00;99555.50;5075432;28;20028;-34
2022/11/18 01:10:38;;;;;;;5.78;2.03;;;;;;;7.55;100.00;99564.81;5075209;28;20104;-34
2022/11/18 01:13:21;;;;;;;5.97;2.00;;;;;;;7.49;100.00;99560.41;5075270;28;20100;-35
2022/11/18 01:15:57;;;;;;;5.18;1.80;;;;;;;7.61;100.00;99579.16;5075694;28;20028;-35
2022/11/18 01:18:28;;;;;;;4.00;1.60;;;;;;;7.63;100.00;99577.06;5075133;28;20048;-41
2022/11/18 01:20:59;;;;;;;4.05;1.85;;;;;;;7.57;100.00;99569.97;5074911;28;20033;-35
2022/11/18 01:23:25;;;;;;;3.72;1.30;;;;;;;7.65;100.00;99578.44;5075313;28;20036;-34
2022/11/18 01:25:50;;;;;;;4.83;1.70;;;;;;;7.61;100.00;99585.38;5075204;28;20028;-35
2022/11/18 01:28:17;;;;;;;4.77;1.90;;;;;;;7.59;100.00;99579.41;5075318;28;20029;-35
2022/11/18 01:30:43;;;;;;;4.65;1.83;;;;;;;7.66;100.00;99592.69;5074781;28;20029;-39
2022/11/18 01:33:08;;;;;;;4.20;1.85;;;;;;;7.66;100.00;99600.75;5074860;28;20185;-34
2022/11/18 01:35:35;;;;;;;3.63;1.70;;;;;;;7.68;100.00;99595.97;5074983;28;20021;-34
2022/11/18 01:38:01;;;;;;;5.25;1.42;;;;;;;7.61;100.00;99585.38;5075213;28;20032;-34
2022/11/18 01:40:26;;;;;;;4.60;1.80;;;;;;;7.59;100.00;99597.44;5074749;28;20035;-35
2022/11/18 01:42:52;;;;;;;3.93;1.50;;;;;;;7.62;100.00;99608.53;5074423;28;20100;-35
2022/11/18 01:45:23;;;;;;;6.45;1.73;;;;;;;7.66;100.00;99612.38;5074595;28;20028;-34
2022/11/18 01:48:09;;;;;;;3.05;1.50;;;;;;;7.64;100.00;99617.16;5075136;28;20037;-34
2022/11/18 01:50:38;;;;;;;5.38;1.73;;;;;;;7.68;100.00;99617.50;5074575;28;20025;-34
2022/11/18 01:53:08;;;;;;;3.08;1.85;;;;;;;7.67;100.00;99621.25;5074150;28;20028;-35
2022/11/18 01:55:40;;;;;;;4.15;1.48;;;;;;;7.70;100.00;99623.44;5074582;28;20373;-34
2022/11/18 01:58:11;;;;;;;4.55;1.58;;;;;;;7.60;100.00;99605.25;5074133;28;20035;-34
2022/11/18 02:00:37;;;;;;;3.45;1.83;;;;;;;7.68;100.00;99630.97;5074883;28;20025;-34
2022/11/18 02:03:03;;;;;;;2.00;1.30;;;;;;;7.68;100.00;99623.69;5074575;28;20041;-35
2022/11/18 02:05:30;;;;;;;5.60;1.70;;;;;;;7.65;100.00;99618.78;5074405;28;20025;-34
2022/11/18 02:07:56;;;;;;;5.40;1.45;;;;;;;7.70;100.00;99626.13;5074701;28;20029;-35
2022/11/18 02:10:23;;;;;;;4.03;1.52;;;;;;;7.56;100.00;99614.84;5074136;28;20449;-35
2022/11/18 02:12:51;;;;;;;4.47;1.80;;;;;;;7.58;100.00;99611.94;5074342;28;20078;-34
2022/11/18 02:15:24;;;;;;;3.15;1.58;;;;;;;7.69;100.00;99637.97;5073166;28;20116;-34
2022/11/18 02:18:14;;;;;;;3.75;1.90;;;;;;;7.70;100.00;99639.59;5073670;28;20033;-34
2022/11/18 02:20:45;;;;;;;3.00;1.45;;;;;;;7.72;100.00;99640.19;5074006;28;20017;-34
2022/11/18 02:23:48;;;;;;;5.05;1.85;;;;;;;7.73;100.00;99642.63;5073815;28;20021;-35
2022/11/18 02:26:37;;;;;;;5.10;1.73;;;;;;;7.74;100.00;99646.94;5074650;28;20034;-34
2022/11/18 02:29:29;;;;;;;4.00;1.80;;;;;;;7.75;100.00;99648.56;5073453;28;20077;-35
2022/11/18 02:31:59;;;;;;;4.30;1.50;;;;;;;7.79;100.00;99654.28;5011940;28;20132;-35
2022/11/18 02:34:47;;;;;;;3.35;1.58;;;;;;;7.71;100.00;99643.91;5011848;28;20042;-34
2022/11/18 02:37:42;;;;;;;3.08;1.33;;;;;;;7.83;100.00;99657.31;5012048;28;20157;-34
2022/11/18 02:40:31;;;;;;;2.72;1.40;;;;;;;7.83;100.00;99651.94;4992327;28;20387;-34
2022/11/18 02:43:13;;;;;;;2.65;1.45;;;;;;;7.85;100.00;99658.69;4991981;28;20034;-35
2022/11/18 02:45:43;;;;;;;5.78;1.75;;;;;;;7.82;100.00;99661.09;4976881;28;20035;-34
2022/11/18 02:48:11;;;;;;;5.10;1.73;;;;;;;7.84;100.00;99665.16;4992382;28;20045;-35
2022/11/18 02:50:40;;;;;;;6.72;1.95;;;;;;;7.80;100.00;99672.06;4991889;28;20050;-35
2022/11/18 02:53:09;;;;;;;3.80;1.52;;;;;;;7.76;100.00;99660.19;4992199;28;20495;-34
2022/11/18 02:55:36;;;;;;;4.63;1.60;;;;;;;7.87;100.00;99669.25;4991621;28;20042;-35
2022/11/18 02:58:04;;;;;;;5.75;1.85;;;;;;;7.84;100.00;99665.16;4992129;28;20042;-34
2022/11/18 03:00:30;;;;;;;5.00;1.58;;;;;;;7.88;100.00;99669.00;4991553;28;20038;-34
2022/11/18 03:02:55;;;;;;;4.70;1.55;;;;;;;7.80;100.00;99664.00;4991789;28;20065;-34
2022/11/18 03:05:41;;;;;;;7.03;2.17;;;;;;;7.86;100.00;99671.13;4991505;28;20470;-34
2022/11/18 03:08:14;;;;;;;5.63;1.40;;;;;;;7.86;100.00;99668.44;4995663;28;20110;-34
2022/11/18 03:11:09;;;;;;;3.58;1.50;;;;;;;7.94;100.00;99681.47;5011918;28;20371;-34
2022/11/18 03:13:48;;;;;;;4.57;1.83;;;;;;;7.92;100.00;99677.41;5011630;28;20029;-34
2022/11/18 03:16:21;;;;;;;5.80;2.28;;;;;;;7.95;100.00;99688.53;5035373;28;20366;-34
2022/11/18 03:18:53;;;;;;;5.90;1.80;;;;;;;7.94;100.00;99686.06;5072769;28;20116;-34
2022/11/18 03:21:22;;;;;;;4.70;1.70;;;;;;;7.96;100.00;99684.78;5073496;28;20029;-34
2022/11/18 03:23:58;;;;;;;3.88;1.50;;;;;;;7.97;100.00;99686.41;5073416;28;20066;-34
2022/11/18 03:26:31;;;;;;;4.90;2.07;;;;;;;7.97;100.00;99694.47;5072576;28;20140;-34
2022/11/18 03:29:02;;;;;;;3.53;1.80;;;;;;;8.00;100.00;99701.22;5073187;28;20036;-34
2022/11/18 03:31:55;;;;;;;4.90;1.33;;;;;;;7.93;100.00;99687.13;5072901;28;20021;-34
2022/11/18 03:34:29;;;;;;;3.67;1.35;;;;;;;7.90;100.00;99679.50;5072850;28;20025;-34
2022/11/18 03:37:02;;;;;;;3.85;2.03;;;;;;;7.94;100.00;99686.88;5073111;28;20024;-34
2022/11/18 03:39:31;;;;;;;4.72;1.67;;;;;;;8.04;100.00;99710.47;5072567;28;20024;-34
2022/11/18 03:42:23;;;;;;;4.78;1.63;;;;;;;8.06;100.00;99710.25;5072952;28;20404;-34
2022/11/18 03:44:57;;;;;;;4.35;1.70;;;;;;;8.04;100.00;99712.34;5072674;28;20025;-34
2022/11/18 03:47:30;;;;;;;4.30;1.38;;;;;;;8.07;100.00;99718.06;5072422;28;20492;-34
2022/11/18 03:50:22;;;;;;;4.43;1.55;;;;;;;8.09;100.00;99726.72;5073234;28;20029;-34
2022/11/18 03:52:50;;;;;;;3.75;1.58;;;;;;;8.07;100.00;99731.53;5011443;28;20045;-34
2022/11/18 03:55:26;;;;;;;4.43;1.75;;;;;;;8.08;100.00;99733.16;5010685;28;20049;-35
2022/11/18 03:58:16;;;;;;;5.57;2.20;;;;;;;8.09;100.00;99725.91;5011055;28;20477;-34
2022/11/18 04:00:46;;;;;;;5.57;1.90;;;;;;;8.11;100.00;99734.56;5011039;28;20084;-34
2022/11/18 04:03:12;;;;;;;5.75;1.70;;;;;;;8.05;100.00;99740.88;5010366;28;20484;-34
2022/11/18 04:05:40;;;;;;;4.45;1.80;;;;;;;8.07;100.00;99738.78;5010960;28;20390;-35
2022/11/18 04:08:18;;;;;;;5.72;1.70;;;;;;;7.94;100.00;99734.50;5010948;28;20038;-34
2022/11/18 04:10:54;;;;;;;3.40;1.70;;;;;;;8.07;100.00;99754.94;5010524;28;20058;-34
2022/11/18 04:13:25;;;;;;;5.65;1.63;;;;;;;8.06;100.00;99750.63;5011283;28;20112;-34
2022/11/18 04:15:52;;;;;;;4.35;1.80;;;;;;;8.06;100.00;99759.53;5010398;28;20464;-34
2022/11/18 04:18:18;;;;;;;4.10;1.52;;;;;;;8.07;100.00;99763.03;5010792;28;20067;-35
2022/11/18 04:20:43;;;;;;;3.70;1.60;;;;;;;7.98;100.00;99747.25;5010622;28;20239;-34
2022/11/18 04:23:08;;;;;;;4.07;1.70;;;;;;;8.04;100.00;99766.19;5010806;28;20038;-35
2022/11/18 04:25:34;;;;;;;3.90;1.80;;;;;;;8.04;100.00;99766.19;5010774;28;20033;-35
2022/11/18 04:27:59;;;;;;;4.57;1.75;;;;;;;7.95;100.00;99757.66;5010440;28;20105;-34
2022/11/18 04:30:24;;;;;;;3.40;1.57;;;;;;;8.00;100.00;99772.06;5059147;28;20028;-34
2022/11/18 04:32:50;;;;;;;4.73;1.73;;;;;;;7.99;100.00;99775.78;5072575;28;20122;-35
2022/11/18 04:35:15;;;;;;;6.03;1.93;;;;;;;7.97;100.00;99772.53;5072557;28;20059;-35
2022/11/18 04:37:41;;;;;;;5.70;1.80;;;;;;;7.93;100.00;99774.06;5072622;28;20163;-34
2022/11/18 04:40:07;;;;;;;4.53;1.75;;;;;;;7.92;100.00;99774.31;5076588;28;20271;-34
2022/11/18 04:42:32;;;;;;;7.45;2.17;;;;;;;7.87;100.00;99775.03;5075519;28;20464;-34
2022/11/18 04:44:58;;;;;;;3.93;1.60;;;;;;;7.89;100.00;99788.25;5075794;28;20040;-34
2022/11/18 04:47:23;;;;;;;4.30;1.90;;;;;;;7.77;100.00;99780.22;5075825;28;20464;-34
2022/11/18 04:49:49;;;;;;;3.65;1.50;;;;;;;7.73;100.00;99773.66;5075455;28;20467;-34
2022/11/18 04:52:14;;;;;;;4.50;1.60;;;;;;;7.74;100.00;99789.56;5076539;28;20364;-34
2022/11/18 04:54:40;;;;;;;5.25;1.90;;;;;;;7.75;100.00;99795.78;5075504;28;20037;-34
2022/11/18 04:57:05;;;;;;;6.07;2.27;;;;;;;7.66;100.00;99787.28;5075695;28;20352;-35
2022/11/18 04:59:31;;;;;;;3.80;1.93;;;;;;;7.65;100.00;99798.25;5075610;28;20483;-35
2022/11/18 05:01:59;;;;;;;7.20;2.25;;;;;;;7.68;100.00;99803.16;5076164;28;20703;-35
2022/11/18 05:04:28;;;;;;;5.28;2.20;;;;;;;7.61;100.00;99805.16;5075577;28;20044;-35
2022/11/18 05:06:54;;;;;;;3.95;1.92;;;;;;;7.55;100.00;99798.03;5074826;28;20373;-34
2022/11/18 05:09:20;;;;;;;4.03;2.00;;;;;;;7.56;100.00;99813.94;5075725;28;20032;-34
2022/11/18 05:14:29;;;;;;;5.55;2.25;;;;;;;7.48;100.00;99823.19;5075752;28;20831;-34
2022/11/18 05:16:56;;;;;;;6.72;2.20;;;;;;;7.44;100.00;99822.03;5075477;28;20032;-34
2022/11/18 05:19:21;;;;;;;6.20;2.10;;;;;;;7.42;100.00;99818.78;5074957;28;20024;-34
2022/11/18 05:21:47;;;;;;;5.63;1.90;;;;;;;7.40;100.00;99823.53;5075682;28;20529;-35
2022/11/18 05:24:12;;;;;;;4.87;2.20;;;;;;;7.37;100.00;99832.09;5075393;28;20016;-35
2022/11/18 05:26:38;;;;;;;4.23;2.10;;;;;;;7.36;100.00;99832.31;5073684;28;20771;-34
2022/11/18 05:29:03;;;;;;;6.17;2.30;;;;;;;7.37;100.00;99834.78;5075592;28;20027;-34
2022/11/18 05:31:29;;;;;;;6.22;2.28;;;;;;;7.35;100.00;99842.25;5074888;28;20469;-34
2022/11/18 05:33:55;;;;;;;5.30;2.20;;;;;;;7.32;100.00;99837.38;5074986;28;20032;-34
2022/11/18 05:36:21;;;;;;;4.00;2.10;;;;;;;7.36;100.00;99843.06;5074880;28;20481;-34
2022/11/18 05:38:47;;;;;;;4.97;2.40;;;;;;;7.32;100.00;99844.59;5075303;28;20424;-34
2022/11/18 05:43:56;;;;;;;4.88;2.00;;;;;;;7.28;100.00;99849.63;5075029;28;19932;-34
2022/11/18 05:46:22;;;;;;;6.55;2.33;;;;;;;7.26;100.00;99849.03;5075468;28;20028;-34
2022/11/18 05:48:47;;;;;;;4.30;2.37;;;;;;;7.24;100.00;99853.84;5074503;28;20107;-35
2022/11/18 05:51:12;;;;;;;3.90;2.27;;;;;;;7.26;100.00;99862.47;5073681;28;20078;-34
2022/11/18 05:53:38;;;;;;;6.60;2.43;;;;;;;7.21;100.00;99859.66;5074985;28;20071;-35
2022/11/18 05:56:14;;;;;;;4.47;2.23;;;;;;;7.22;100.00;99861.31;5074562;28;20075;-34
2022/11/18 05:58:40;;;;;;;4.72;2.13;;;;;;;7.20;100.00;99860.72;5074849;28;20086;-34
2022/11/18 06:01:06;;;;;;;6.67;2.63;;;;;;;7.17;100.00;99864.72;5074405;28;20024;-34
2022/11/18 06:03:36;;;;;;;3.58;2.40;;;;;;;7.12;100.00;99864.56;5074469;28;20051;-34
2022/11/18 06:06:05;;;;;;;4.93;2.50;;;;;;;7.09;100.00;99873.13;5072580;28;20493;-34
2022/11/18 06:08:37;;;;;;;5.72;2.40;;;;;;;7.07;100.00;99872.50;5074506;28;20518;-34
2022/11/18 06:11:02;;;;;;;4.10;2.50;;;;;;;7.07;100.00;99869.81;5074557;28;20039;-34
2022/11/18 06:13:37;;;;;;;6.60;2.35;;;;;;;7.01;100.00;99876.13;5074240;28;20032;-34
2022/11/18 06:16:03;;;;;;;5.53;2.72;;;;;;;7.05;100.00;99895.31;5074123;28;20029;-34
2022/11/18 06:18:31;;;;;;;3.97;2.80;;;;;;;7.01;100.00;99888.75;5074649;28;20040;-34
2022/11/18 06:21:03;;;;;;;5.28;2.45;;;;;;;6.97;100.00;99894.59;5073989;28;20132;-35
2022/11/18 06:23:32;;;;;;;5.13;2.67;;;;;;;6.92;100.00;99890.94;5074019;28;20090;-34
2022/11/18 06:25:58;;;;;;;6.05;2.28;;;;;;;6.97;100.00;99899.97;5073486;28;20109;-35
2022/11/18 06:28:24;;;;;;;5.45;2.55;;;;;;;6.96;100.00;99911.75;5073868;28;20457;-34
2022/11/18 06:30:50;;;;;;;7.18;2.17;;;;;;;6.87;100.00;99902.38;5073722;28;20036;-35
2022/11/18 06:33:15;;;;;;;5.53;2.50;;;;;;;6.91;100.00;99908.94;5074273;28;20074;-35
2022/11/18 06:35:41;;;;;;;5.63;2.90;;;;;;;6.89;100.00;99913.75;5073576;28;20457;-34
2022/11/18 06:38:07;;;;;;;4.15;2.38;;;;;;;6.82;100.00;99910.31;5074370;28;20032;-34
2022/11/18 06:40:34;;;;;;;5.80;2.63;;;;;;;6.84;100.00;99920.88;5073811;28;20021;-34
2022/11/18 06:48:57;;;;;;;6.05;2.47;;;;;;;6.83;100.00;99933.47;5031448;28;20045;-34
2022/11/18 06:51:23;;;;;;;4.75;2.53;;;;;;;6.82;100.00;99936.38;5031385;28;20029;-34
2022/11/18 06:53:49;;;;;;;4.45;2.63;;;;;;;6.76;100.00;99930.06;5031332;28;20033;-34
2022/11/18 06:56:16;;;;;;;5.57;3.40;;;;;;;6.79;100.00;99939.53;5030897;28;20137;-34
2022/11/18 06:58:41;;;;;;;4.95;2.70;;;;;;;6.77;100.00;99947.81;5031129;28;20037;-34
2022/11/18 07:01:12;;;;;;;5.35;2.67;;;;;;;6.78;100.00;99952.13;5030456;28;20505;-34
2022/11/18 07:03:39;;;;;;;4.68;2.65;;;;;;;6.77;100.00;99963.94;5031001;28;20050;-35
2022/11/18 07:06:05;;;;;;;6.28;2.70;;;;;;;6.75;100.00;99960.66;5030951;28;20194;-35
2022/11/18 07:08:30;;;;;;;4.30;2.88;;;;;;;6.67;100.00;99947.53;5031181;28;20500;-35
2022/11/18 07:10:55;;;;;;;5.03;3.13;;;;;;;6.78;100.00;99970.13;5030826;28;20041;-34
2022/11/18 07:13:21;;;;;;;8.07;3.10;;;;;;;6.67;100.00;99963.66;5031417;28;20025;-34
2022/11/18 07:15:46;;;;;;;7.23;3.20;;;;;;;6.77;100.00;99972.00;5030890;28;20502;-34
2022/11/18 07:18:11;;;;;;;4.50;3.00;;;;;;;6.78;100.00;99968.25;5031060;28;20029;-36
2022/11/18 07:20:37;;;;;;;6.73;3.30;;;;;;;6.72;100.00;99967.28;5033940;28;20029;-36
2022/11/18 07:23:02;;;;;;;4.43;2.80;;;;;;;6.80;100.00;99979.59;5072680;28;20024;-34
2022/11/18 07:25:27;;;;;;;6.03;3.10;;;;;;;6.80;100.00;99981.47;5072096;28;20053;-34
2022/11/18 07:27:52;;;;;;;7.23;3.30;;;;;;;6.80;100.00;99984.97;5072969;28;20450;-34
2022/11/18 07:30:18;;;;;;;6.33;3.27;;;;;;;6.81;100.00;99989.31;5072968;28;20047;-34
2022/11/18 07:32:43;;;;;;;4.03;2.93;;;;;;;6.83;100.00;99991.75;5073367;28;20028;-34
2022/11/18 07:35:09;;;;;;;6.83;3.57;;;;;;;6.80;100.00;99987.66;5073063;28;20032;-34
2022/11/18 07:37:34;;;;;;;7.33;3.40;;;;;;;6.84;100.00;100002.31;5073359;28;20078;-34
2022/11/18 07:39:59;;;;;;;4.73;3.00;;;;;;;6.85;100.00;100003.94;5073015;28;20280;-34
2022/11/18 07:42:24;;;;;;;6.20;3.13;;;;;;;6.81;100.00;100001.91;5071357;28;20033;-34
2022/11/18 07:44:50;;;;;;;4.27;2.97;;;;;;;6.87;100.00;100017.13;5073070;28;20029;-34
2022/11/18 07:47:15;;;;;;;7.90;3.30;;;;;;;6.89;100.00;100012.38;5072974;28;20032;-34
2022/11/18 07:49:41;;;;;;;5.65;2.95;;;;;;;6.89;100.00;100023.13;5071689;28;20140;-34
2022/11/18 07:52:06;;;;;;;7.03;3.10;;;;;;;6.88;100.00;100013.38;5073056;28;20035;-34
2022/11/18 07:54:31;;;;;;;6.87;3.20;;;;;;;6.91;100.00;100012.94;5073649;28;20025;-34
2022/11/18 07:56:56;;;;;;;3.93;2.70;;;;;;;6.88;100.00;100024.16;5072600;28;20389;-34
2022/11/18 07:59:22;;;;;;;7.90;4.17;;;;;;;6.90;100.00;100035.50;5072871;28;20098;-34
2022/11/18 08:01:47;;;;;;;5.60;3.60;;;;;;;6.88;100.00;100029.53;5072911;28;20031;-34
2022/11/18 08:04:13;;;;;;;5.67;3.07;;;;;;;6.90;100.00;100030.94;5073450;28;20087;-34
2022/11/18 08:06:40;;;;;;;5.47;2.88;;;;;;;6.94;100.00;100032.13;5072798;28;20107;-34
2022/11/18 08:09:06;;;;;;;5.13;2.92;;;;;;;7.03;100.00;100037.19;5072863;28;20035;-35
2022/11/18 08:11:32;;;;;;;6.93;2.90;;;;;;;7.05;100.00;100043.16;5072835;28;20108;-34
2022/11/18 08:13:57;;;;;;;5.15;3.10;;;;;;;7.05;100.00;100035.91;5075188;28;20048;-34
2022/11/18 08:16:24;;;;;;;6.97;3.00;;;;;;;7.14;100.00;100048.00;5076416;28;20031;-34
2022/11/18 08:18:50;;;;;;;5.63;3.00;;;;;;;7.13;100.00;100035.63;5076928;28;20369;-35
2022/11/18 08:21:18;;;;;;;7.40;3.13;;;;;;;7.19;100.00;100047.31;5077170;28;20024;-34
2022/11/18 08:23:48;;;;;;;7.05;2.90;;;;;;;7.25;100.00;100062.53;5076593;28;20411;-35
2022/11/18 08:26:14;;;;;;;6.60;2.83;;;;;;;7.26;100.00;100056.09;5075196;28;20029;-34
2022/11/18 08:28:41;;;;;;;6.05;2.78;;;;;;;7.25;100.00;100059.84;5077012;28;20051;-34
2022/11/18 08:31:17;;;;;;;6.97;3.00;;;;;;;7.28;100.00;100070.16;5075818;28;20048;-34
2022/11/18 08:33:42;;;;;;;5.32;2.88;;;;;;;7.27;100.00;100078.44;5076355;28;20038;-35
2022/11/18 08:36:11;;;;;;;6.78;3.17;;;;;;;7.30;100.00;100073.44;5076040;28;20111;-34
2022/11/18 08:38:37;;;;;;;5.43;2.80;;;;;;;7.32;100.00;100076.72;5076071;28;20350;-34
2022/11/18 08:41:04;;;;;;;4.47;2.80;;;;;;;7.29;100.00;100074.47;5076035;28;20074;-34
2022/11/18 08:43:29;;;;;;;5.05;2.78;;;;;;;7.31;100.00;100072.38;5076449;28;20301;-34
2022/11/18 08:45:54;;;;;;;4.53;2.67;;;;;;;7.38;100.00;100075.00;5074640;28;20032;-34
2022/11/18 08:48:20;;;;;;;6.87;2.87;;;;;;;7.46;100.00;100077.34;5076221;28;20035;-34
2022/11/18 08:50:45;;;;;;;6.47;2.90;;;;;;;7.54;100.00;100081.59;5076387;28;20032;-34
2022/11/18 08:53:10;;;;;;;5.30;2.40;;;;;;;7.51;100.00;100063.19;5075859;28;20108;-34
2022/11/18 08:55:35;;;;;;;4.27;2.43;;;;;;;7.75;100.00;100086.44;5075404;28;20070;-34
2022/11/18 08:58:01;;;;;;;5.73;2.40;;;;;;;7.79;100.00;100090.28;5075772;28;20028;-34
2022/11/18 09:00:26;;;;;;;3.73;2.20;;;;;;;7.75;100.00;100071.09;5075623;28;20036;-34
2022/11/18 09:02:52;;;;;;;6.82;2.45;;;;;;;7.79;100.00;100071.47;5075396;28;20485;-34
2022/11/18 09:05:17;;;;;;;5.03;2.47;;;;;;;7.84;100.00;100087.72;5075550;28;20032;-34
2022/11/18 09:07:42;;;;;;;5.17;2.37;;;;;;;7.84;100.00;100090.44;5075981;28;20033;-34
2022/11/18 09:10:08;;;;;;;5.13;2.53;;;;;;;7.77;100.00;100095.09;5075181;28;20024;-34
2022/11/18 09:12:33;;;;;;;5.35;2.88;;;;;;;7.73;100.00;100093.91;5075528;28;20071;-34
2022/11/18 09:14:59;;;;;;;5.97;2.43;;;;;;;7.74;100.00;100093.69;5075326;28;20079;-34
2022/11/18 09:17:24;;;;;;;5.67;2.60;;;;;;;7.69;100.00;100095.44;5075439;28;20036;-34
2022/11/18 09:19:49;;;;;;;4.83;2.37;;;;;;;7.73;100.00;100105.50;5075617;28;20032;-34
2022/11/18 09:22:15;;;;;;;7.30;2.50;;;;;;;7.78;100.00;100110.19;5075592;28;20074;-34
2022/11/18 09:24:40;;;;;;;8.30;2.63;;;;;;;7.82;100.00;100114.06;5075137;28;20036;-34
2022/11/18 09:27:06;;;;;;;7.27;2.50;;;;;;;7.92;100.00;100116.19;5075003;28;20024;-34
2022/11/18 09:29:32;;;;;;;5.18;2.50;;;;;;;8.03;100.00;100125.34;5075517;28;20024;-35
2022/11/18 09:32:00;;;;;;;6.93;2.80;;;;;;;8.16;100.00;100122.44;5075231;28;20029;-35
2022/11/18 09:34:26;;;;;;;3.92;2.15;;;;;;;8.27;100.00;100116.25;5074068;28;20032;-35
2022/11/18 09:36:54;;;;;;;6.47;2.67;;;;;;;8.32;100.00;100112.84;5075279;28;20027;-35
2022/11/18 09:39:20;;;;;;;5.72;2.72;;;;;;;8.55;100.00;100122.84;5074752;28;20038;-35
2022/11/18 09:41:49;;;;;;;5.65;2.65;;;;;;;8.65;100.00;100133.84;5074913;28;20036;-35
2022/11/18 09:44:26;;;;;;;5.38;2.47;;;;;;;8.60;100.00;100131.03;5075112;28;20037;-35
2022/11/18 09:47:28;;;;;;;7.60;2.50;;;;;;;8.55;100.00;100139.84;5075314;28;20029;-35
2022/11/18 09:49:56;;;;;;;7.85;2.58;;;;;;;8.50;100.00;100148.63;5075026;28;20060;-35
2022/11/18 09:53:08;;;;;;;6.45;2.75;;;;;;;8.61;100.00;100160.44;5074827;28;20029;-35
2022/11/18 09:55:38;;;;;;;6.57;2.60;;;;;;;8.65;100.00;100147.31;5073021;28;20036;-35
2022/11/18 09:58:05;;;;;;;5.85;2.42;;;;;;;8.73;100.00;100153.16;5075483;28;20028;-35
2022/11/18 10:00:30;;;;;;;4.90;2.30;;;;;;;8.79;100.00;100170.28;5075395;28;20032;-35
2022/11/18 10:03:08;;;;;;;6.07;2.58;;;;;;;8.82;100.00;100177.06;5074316;28;20040;-35
2022/11/18 10:06:02;;;;;;;8.90;2.47;;;;;;;8.84;100.00;100174.97;5074776;28;20029;-35
2022/11/18 10:08:34;;;;;;;5.78;2.55;;;;;;;8.82;100.00;100172.50;5075025;28;20024;-35
2022/11/18 10:11:08;;;;;;;3.75;2.00;;;;;;;8.71;100.00;100159.84;5074944;28;20211;-35
2022/11/18 10:14:00;;;;;;;5.40;2.40;;;;;;;8.85;100.00;100176.63;5074655;28;20028;-35
2022/11/18 10:16:43;;;;;;;4.53;2.03;;;;;;;8.90;100.00;100180.25;5073963;28;20400;-35
2022/11/18 10:19:23;;;;;;;6.07;2.20;;;;;;;8.97;100.00;100178.22;5074774;28;20024;-35
2022/11/18 10:21:51;;;;;;;8.43;2.53;;;;;;;9.01;100.00;100183.97;5074295;28;20073;-35
2022/11/18 10:24:21;;;;;;;5.75;2.42;;;;;;;8.97;100.00;100167.44;5074151;28;20024;-35
2022/11/18 10:26:53;;;;;;;6.28;2.90;;;;;;;9.12;100.00;100179.63;5074042;28;20030;-35
2022/11/18 10:29:18;;;;;;;6.15;2.45;;;;;;;9.12;100.00;100188.53;5074797;28;20074;-35
2022/11/18 10:32:04;;;;;;;7.83;2.40;;;;;;;9.20;100.00;100192.75;5073703;28;20476;-35
2022/11/18 10:34:31;;;;;;;4.60;2.22;;;;;;;9.18;100.00;100192.16;5074038;28;20036;-35
2022/11/18 10:37:20;;;;;;;4.80;2.00;;;;;;;9.20;100.00;100184.66;5073159;28;20111;-35
2022/11/18 10:39:57;;;;;;;9.68;2.50;;;;;;;9.22;100.00;100187.91;5073583;28;20492;-35
2022/11/18 10:42:44;;;;;;;;;;;;;;;9.38;100.00;100197.16;5074408;28;20025;-35
2022/11/18 10:45:23;;;;;;;6.15;2.78;;;;;;;9.38;100.00;100197.97;5073272;28;20292;-35
2022/11/18 10:48:04;;;;;;;5.63;2.10;;;;;;;9.40;100.00;100205.84;5074184;28;20165;-35
2022/11/18 10:50:36;;;;;;;9.68;3.15;;;;;;;9.36;100.00;100204.66;5073611;28;20032;-35
2022/11/18 10:53:03;;;;;;;6.28;1.85;;;;;;;9.31;100.00;100194.59;5074047;28;20040;-35
2022/11/18 10:55:29;;;;;;;5.40;2.20;;;;;;;9.30;100.00;100192.94;5073648;28;20085;-35
2022/11/18 10:58:15;;;;;;;7.40;1.80;;;;;;;9.39;100.00;100206.91;5073466;28;20036;-35
2022/11/18 11:00:46;;;;;;;6.63;2.03;;;;;;;9.35;100.00;100206.53;5072940;28;20063;-35
2022/11/18 11:03:40;;;;;;;6.13;2.20;;;;;;;9.29;100.00;100211.03;5072458;28;20494;-35
2022/11/18 11:06:26;;;;;;;6.20;2.08;;;;;;;9.37;100.00;100207.16;5073919;28;20094;-35
2022/11/18 11:08:55;;;;;;;7.47;2.63;;;;;;;9.26;100.00;100205.28;5073636;28;20020;-35
2022/11/18 11:11:36;;;;;;;5.28;2.03;;;;;;;9.35;100.00;100214.63;5072045;28;20102;-35
2022/11/18 11:14:18;;;;;;;4.97;1.92;;;;;;;9.32;100.00;100215.13;5074046;28;20028;-35
2022/11/18 11:17:09;;;;;;;8.63;2.50;;;;;;;9.28;100.00;100216.66;5073759;28;20036;-35
2022/11/18 11:19:44;;;;;;;6.88;2.30;;;;;;;9.26;100.00;100222.28;5066211;28;20041;-35
2022/11/18 11:22:13;;;;;;;5.97;1.95;;;;;;;9.19;100.00;100218.91;5073661;28;20032;-35
2022/11/18 11:24:39;;;;;;;7.28;2.17;;;;;;;9.21;100.00;100213.25;5073456;28;20381;-35
2022/11/18 11:27:15;;;;;;;4.10;1.85;;;;;;;9.20;100.00;100225.94;5073886;28;20349;-35
2022/11/18 11:30:06;;;;;;;4.53;1.67;;;;;;;9.26;100.00;100230.38;5073462;28;20028;-35
2022/11/18 11:32:50;;;;;;;6.28;2.00;;;;;;;9.21;100.00;100213.25;5073759;28;20028;-35
2022/11/18 11:35:26;;;;;;;6.35;1.80;;;;;;;9.28;100.00;100228.28;5073289;28;20052;-35
2022/11/18 11:37:59;;;;;;;6.35;1.98;;;;;;;9.32;100.00;100231.31;5073072;28;20078;-35
2022/11/18 11:40:37;;;;;;;5.80;1.98;;;;;;;9.34;100.00;100233.78;5073261;28;20082;-35
2022/11/18 11:43:39;;;;;;;5.90;1.95;;;;;;;9.34;100.00;100221.09;5073218;28;20099;-35
2022/11/18 11:46:42;;;;;;;5.05;1.80;;;;;;;9.42;100.00;100242.34;5072928;28;20477;-35
2022/11/18 11:49:18;;;;;;;5.60;1.90;;;;;;;9.42;100.00;100242.34;5077159;28;20021;-35
2022/11/18 11:51:54;;;;;;;6.40;2.15;;;;;;;9.45;100.00;100241.84;5078228;28;20089;-35
2022/11/18 11:54:36;;;;;;;;;;;;;;;9.49;100.00;100236.78;5077720;28;20032;-35
2022/11/18 11:57:10;;;;;;;5.93;1.98;;;;;;;9.44;100.00;100237.50;5077356;28;19912;-35
2022/11/18 12:00:04;;;;;;;8.85;3.38;;;;;;;9.50;100.00;100244.63;5076990;28;20127;-35
2022/11/18 12:02:40;;;;;;;5.47;2.58;;;;;;;9.45;100.00;100241.84;5015256;28;20042;-35